Time;durP1;ratioP1;P1;durP2;ratioP2;P2;SDS_P1;SDS_P2;PMS_P1;PMS_P2;Temp;Humidity;BMP_temperature;BMP_pressure;BME280_temperature;BME280_humidity;BME280_pressure;Samples;Min_cycle;Max_cycle;Signal;HPM_P1;HPM_P2
2020/12/19 00:00:34;;;;;;;18.17;9.48;;;19.30;99.90;;;;;;5136059;27;20035;-61
2020/12/19 00:03:02;;;;;;;15.98;8.93;;;19.40;99.90;;;;;;5136281;27;20452;-61
2020/12/19 00:05:29;;;;;;;14.30;9.43;;;19.50;99.90;;;;;;5136175;27;20023;-60
2020/12/19 00:07:57;;;;;;;19.15;8.90;;;19.40;99.90;;;;;;5136064;27;20054;-61
2020/12/19 00:10:24;;;;;;;19.27;9.40;;;19.40;99.90;;;;;;5136267;27;20011;-61
2020/12/19 00:12:51;;;;;;;15.18;9.50;;;19.40;99.90;;;;;;5136763;27;20058;-61
2020/12/19 00:15:19;;;;;;;24.90;9.73;;;19.40;99.90;;;;;;5135927;27;20490;-65
2020/12/19 00:17:46;;;;;;;16.95;9.20;;;19.30;99.90;;;;;;5135451;27;20023;-61
2020/12/19 00:20:14;;;;;;;20.13;9.40;;;19.40;99.90;;;;;;5135467;27;20439;-61
2020/12/19 00:22:44;;;;;;;18.95;9.45;;;19.40;99.90;;;;;;5099314;27;20391;-61
2020/12/19 00:25:12;;;;;;;16.25;9.85;;;19.40;99.90;;;;;;5135496;27;20019;-60
2020/12/19 00:27:40;;;;;;;20.40;9.95;;;19.40;99.90;;;;;;5135351;27;20027;-62
2020/12/19 00:30:08;;;;;;;17.75;9.07;;;19.40;99.90;;;;;;5116624;27;20020;-61
2020/12/19 00:32:39;;;;;;;14.55;9.15;;;19.50;99.90;;;;;;5135274;27;20023;-61
2020/12/19 00:35:08;;;;;;;24.75;10.57;;;19.60;99.90;;;;;;5134870;27;20476;-62
2020/12/19 00:37:41;;;;;;;15.68;8.70;;;19.70;99.90;;;;;;5134599;27;20027;-63
2020/12/19 00:40:10;;;;;;;15.68;9.40;;;19.80;99.90;;;;;;5134925;27;20023;-63
2020/12/19 00:42:39;;;;;;;10.90;7.57;;;19.90;99.90;;;;;;5134531;27;20027;-63
2020/12/19 00:45:09;;;;;;;18.73;8.10;;;20.00;99.90;;;;;;5134553;27;20163;-64
2020/12/19 00:47:40;;;;;;;12.55;7.78;;;20.00;99.90;;;;;;5098575;27;20101;-64
2020/12/19 00:50:09;;;;;;;15.85;7.60;;;20.00;99.90;;;;;;5134236;27;20094;-64
2020/12/19 00:52:37;;;;;;;13.88;6.80;;;20.10;99.90;;;;;;5134473;27;20099;-63
2020/12/19 00:55:07;;;;;;;12.57;7.22;;;20.20;99.90;;;;;;5134349;27;20050;-64
2020/12/19 00:57:37;;;;;;;13.38;6.63;;;20.30;99.90;;;;;;5134355;27;20064;-63
2020/12/19 01:00:09;;;;;;;10.88;7.32;;;20.40;99.90;;;;;;5134750;27;20031;-64
2020/12/19 01:02:39;;;;;;;16.30;7.40;;;20.30;99.90;;;;;;5098158;27;20036;-62
2020/12/19 01:05:08;;;;;;;16.75;8.15;;;20.40;99.90;;;;;;5091311;28;20042;-62
2020/12/19 05:43:11;;;;;;;13.10;8.80;;;19.50;99.90;;;;;;4952761;28;20046;-62
2020/12/19 05:45:38;;;;;;;11.52;8.70;;;19.50;99.90;;;;;;4954520;29;20027;-58
2020/12/19 05:48:06;;;;;;;12.93;8.10;;;19.50;99.90;;;;;;4954667;29;20424;-59
2020/12/19 05:50:34;;;;;;;12.18;8.48;;;19.30;99.90;;;;;;4954552;29;20023;-60
2020/12/19 05:53:04;;;;;;;14.27;9.40;;;19.20;99.90;;;;;;4954775;29;20042;-58
2020/12/19 05:55:31;;;;;;;14.87;8.43;;;19.30;99.90;;;;;;4954603;29;20465;-57
2020/12/19 05:58:01;;;;;;;15.23;9.70;;;19.30;99.90;;;;;;4955237;29;20069;-58
2020/12/19 06:00:30;;;;;;;12.30;8.75;;;19.20;99.90;;;;;;4954316;29;20027;-59
2020/12/19 06:03:01;;;;;;;13.85;9.68;;;19.30;99.90;;;;;;4937331;29;20019;-59
2020/12/19 06:05:29;;;;;;;;;;;19.40;99.90;;;;;;4955140;29;20479;-59
2020/12/19 06:08:01;;;;;;;15.15;9.27;;;19.50;99.90;;;;;;4954532;29;19961;-59
2020/12/19 06:10:32;;;;;;;17.35;9.27;;;19.60;99.90;;;;;;4954665;29;20416;-60
2020/12/19 06:13:19;;;;;;;16.35;8.70;;;19.60;99.90;;;;;;4954784;29;20357;-59
2020/12/19 06:16:11;;;;;;;15.85;9.77;;;19.60;99.90;;;;;;4882579;29;20040;-59
2020/12/19 06:19:14;;;;;;;13.27;10.25;;;19.50;99.90;;;;;;4914309;29;20080;-57
2020/12/19 06:21:48;;;;;;;12.77;9.25;;;19.50;99.90;;;;;;4914254;29;20040;-57
2020/12/19 06:24:38;;;;;;;17.50;10.00;;;19.50;99.90;;;;;;4906155;29;20036;-60
2020/12/19 06:27:30;;;;;;;20.55;9.20;;;19.50;99.90;;;;;;4894926;29;20029;-58
2020/12/19 06:29:58;;;;;;;15.88;8.38;;;19.60;99.90;;;;;;4876212;29;20144;-57
2020/12/19 06:32:28;;;;;;;14.85;8.10;;;19.80;99.90;;;;;;4876437;29;20041;-58
2020/12/19 06:35:06;;;;;;;12.13;7.60;;;19.90;99.90;;;;;;4876371;29;20052;-60
2020/12/19 06:37:36;;;;;;;12.30;7.90;;;20.10;99.90;;;;;;4876411;29;20114;-57
2020/12/19 06:40:23;;;;;;;17.27;7.90;;;20.20;99.90;;;;;;4876541;29;20073;-57
2020/12/19 06:43:11;;;;;;;14.02;8.40;;;20.10;99.90;;;;;;4839074;29;20061;-59
2020/12/19 06:45:39;;;;;;;15.73;8.75;;;20.00;99.90;;;;;;4840323;29;20052;-58
2020/12/19 06:48:29;;;;;;;17.65;8.55;;;19.90;99.90;;;;;;4858274;29;20142;-58
2020/12/19 06:50:57;;;;;;;;;;;19.70;99.90;;;;;;4861853;29;20033;-61
2020/12/19 06:53:27;;;;;;;12.38;8.02;;;19.50;99.90;;;;;;4861287;29;19908;-59
2020/12/19 06:55:55;;;;;;;17.27;8.55;;;19.30;99.90;;;;;;4846230;29;20048;-59
2020/12/19 06:58:34;;;;;;;13.68;8.85;;;19.20;99.90;;;;;;4873471;29;20506;-59
2020/12/19 07:01:22;;;;;;;13.43;9.80;;;19.20;99.90;;;;;;4889729;29;20041;-60
2020/12/19 07:03:49;;;;;;;15.02;9.15;;;19.30;99.90;;;;;;4898312;29;20040;-58
2020/12/19 07:06:17;;;;;;;19.88;11.88;;;19.30;99.90;;;;;;4898306;29;20031;-59
2020/12/19 07:08:45;;;;;;;18.00;9.07;;;19.40;99.90;;;;;;4898376;29;20485;-57
2020/12/19 07:11:33;;;;;;;13.55;8.10;;;19.30;99.90;;;;;;4898340;29;20036;-59
2020/12/19 07:14:01;;;;;;;17.15;8.45;;;19.20;99.90;;;;;;4921595;29;20046;-60
2020/12/19 07:16:52;;;;;;;13.27;10.88;;;19.10;99.90;;;;;;4938123;29;20131;-59
2020/12/19 07:20:05;;;;;;;16.60;11.07;;;19.10;99.90;;;;;;5090249;28;20377;-59
2020/12/19 07:22:33;;;;;;;19.98;12.80;;;19.20;99.90;;;;;;5090210;28;20082;-59
2020/12/19 07:25:01;;;;;;;17.35;11.90;;;19.40;99.90;;;;;;5090545;28;20035;-60
2020/12/19 07:27:29;;;;;;;14.32;10.50;;;19.60;99.90;;;;;;5090392;28;20024;-56
2020/12/19 07:30:01;;;;;;;15.13;9.57;;;19.70;99.90;;;;;;5090218;28;20024;-57
2020/12/19 07:32:30;;;;;;;15.65;9.90;;;19.50;99.90;;;;;;5090019;28;20024;-59
2020/12/19 07:34:59;;;;;;;14.88;9.63;;;19.60;99.90;;;;;;5089974;28;20115;-58
2020/12/19 07:37:27;;;;;;;17.60;9.95;;;19.70;99.90;;;;;;5089784;28;20029;-59
2020/12/19 07:40:09;;;;;;;11.70;8.88;;;19.70;99.90;;;;;;5089807;28;20028;-58
2020/12/19 07:42:37;;;;;;;17.88;9.00;;;19.60;99.90;;;;;;5089873;28;20023;-57
2020/12/19 07:45:06;;;;;;;14.07;8.82;;;19.60;99.90;;;;;;5089609;28;20024;-57
2020/12/19 07:47:34;;;;;;;18.58;9.57;;;19.60;99.90;;;;;;5089874;28;20028;-57
2020/12/19 07:50:03;;;;;;;16.30;9.40;;;19.50;99.90;;;;;;5089926;28;20028;-57
2020/12/19 07:52:31;;;;;;;12.05;9.30;;;19.50;99.90;;;;;;5089966;28;20024;-57
2020/12/19 07:55:03;;;;;;;12.93;8.80;;;19.40;99.90;;;;;;5090122;28;20020;-60
2020/12/19 07:57:32;;;;;;;15.13;9.38;;;19.40;99.90;;;;;;5089987;28;20024;-57
2020/12/19 08:00:03;;;;;;;17.52;9.30;;;19.30;99.90;;;;;;5089879;28;20027;-57
2020/12/19 08:02:37;;;;;;;15.48;9.05;;;19.20;99.90;;;;;;5090199;28;20025;-58
2020/12/19 08:05:05;;;;;;;13.18;8.55;;;19.10;99.90;;;;;;5089555;28;20021;-58
2020/12/19 08:07:32;;;;;;;14.27;9.23;;;19.20;99.90;;;;;;5089556;28;20094;-58
2020/12/19 08:10:03;;;;;;;11.63;8.30;;;19.10;99.90;;;;;;5089221;28;20468;-58
2020/12/19 08:12:32;;;;;;;14.40;9.25;;;19.10;99.90;;;;;;5089450;28;20024;-57
2020/12/19 08:15:10;;;;;;;15.88;9.15;;;19.10;99.90;;;;;;5089222;28;20024;-58
2020/12/19 08:17:51;;;;;;;12.32;9.00;;;19.00;99.90;;;;;;5089089;28;20103;-59
2020/12/19 08:20:24;;;;;;;16.13;8.57;;;19.00;99.90;;;;;;5089226;28;20024;-59
2020/12/19 08:22:55;;;;;;;14.88;9.02;;;19.00;99.90;;;;;;5070216;28;20051;-59
2020/12/19 08:25:25;;;;;;;11.52;9.02;;;18.90;99.90;;;;;;5089582;28;20047;-61
2020/12/19 08:27:54;;;;;;;13.45;9.25;;;19.00;99.90;;;;;;5089128;28;20454;-59
2020/12/19 08:30:27;;;;;;;15.18;10.02;;;19.00;99.90;;;;;;5081445;28;20413;-59
2020/12/19 08:33:04;;;;;;;14.00;10.20;;;19.10;99.90;;;;;;5075391;28;20134;-59
2020/12/19 08:35:39;;;;;;;14.80;10.23;;;19.00;99.90;;;;;;5075380;28;20036;-59
2020/12/19 08:38:24;;;;;;;16.70;10.07;;;19.00;99.90;;;;;;5075528;28;20131;-60
2020/12/19 08:40:55;;;;;;;18.60;10.65;;;19.00;99.90;;;;;;5075408;28;20460;-59
2020/12/19 08:43:33;;;;;;;18.40;10.27;;;18.90;99.90;;;;;;5075447;28;20396;-61
2020/12/19 08:46:12;;;;;;;20.20;10.73;;;18.80;99.90;;;;;;5075219;28;20021;-58
2020/12/19 08:48:41;;;;;;;14.95;10.05;;;18.80;99.90;;;;;;5074985;28;20078;-58
2020/12/19 08:51:14;;;;;;;19.40;10.82;;;18.80;99.90;;;;;;5073045;28;20503;-58
2020/12/19 08:53:42;;;;;;;12.95;9.68;;;18.80;99.90;;;;;;5075045;28;20081;-59
2020/12/19 08:56:15;;;;;;;18.35;9.30;;;18.80;99.90;;;;;;5075275;28;20422;-59
2020/12/19 08:58:52;;;;;;;17.52;9.93;;;18.80;99.90;;;;;;5074829;28;20079;-58
2020/12/19 09:01:20;;;;;;;13.38;9.80;;;18.80;99.90;;;;;;5075018;28;20099;-58
2020/12/19 09:03:48;;;;;;;13.65;9.30;;;18.80;99.90;;;;;;5074675;28;20055;-58
2020/12/19 09:06:17;;;;;;;15.63;8.90;;;18.80;99.90;;;;;;5074667;28;20024;-58
2020/12/19 09:08:47;;;;;;;19.05;9.20;;;18.80;99.90;;;;;;5075099;28;20476;-58
2020/12/19 09:11:35;;;;;;;21.63;9.75;;;18.80;99.90;;;;;;5074786;28;20028;-58
2020/12/19 09:14:08;;;;;;;15.45;9.35;;;18.70;99.90;;;;;;5052423;28;20132;-60
2020/12/19 09:16:56;;;;;;;15.07;9.57;;;18.70;99.90;;;;;;5052696;28;20438;-59
2020/12/19 09:19:24;;;;;;;15.82;9.82;;;18.70;99.90;;;;;;5031974;28;20041;-59
2020/12/19 09:22:03;;;;;;;18.38;11.00;;;18.70;99.90;;;;;;5032362;28;20088;-59
2020/12/19 09:24:31;;;;;;;14.98;10.77;;;18.60;99.90;;;;;;5032440;28;20033;-60
2020/12/19 09:27:00;;;;;;;14.80;10.73;;;18.70;99.90;;;;;;5032069;28;20028;-57
2020/12/19 09:29:28;;;;;;;18.10;9.77;;;18.60;99.90;;;;;;5032226;28;20044;-59
2020/12/19 09:31:56;;;;;;;16.52;10.32;;;18.60;99.90;;;;;;5032111;28;20392;-59
2020/12/19 09:34:23;;;;;;;22.95;10.70;;;18.60;99.90;;;;;;5032070;28;20432;-58
2020/12/19 09:36:51;;;;;;;19.15;11.38;;;18.60;99.90;;;;;;5032066;28;20033;-57
2020/12/19 09:39:19;;;;;;;12.63;10.52;;;18.50;99.90;;;;;;5031888;28;20585;-57
2020/12/19 09:41:47;;;;;;;12.95;10.30;;;18.50;99.90;;;;;;5030945;28;20466;-59
2020/12/19 09:44:15;;;;;;;14.10;11.00;;;18.60;99.90;;;;;;5035856;28;20040;-59
2020/12/19 09:46:45;;;;;;;12.98;10.85;;;18.60;99.90;;;;;;5051645;28;20028;-59
2020/12/19 09:49:13;;;;;;;18.37;11.20;;;18.60;99.90;;;;;;5052204;28;20032;-58
2020/12/19 09:51:41;;;;;;;17.70;10.52;;;18.70;99.90;;;;;;5073952;28;20423;-58
2020/12/19 09:54:09;;;;;;;16.80;10.30;;;18.70;99.90;;;;;;5073825;28;20025;-58
2020/12/19 09:56:40;;;;;;;15.43;11.32;;;18.70;99.90;;;;;;5073664;28;20058;-58
2020/12/19 09:59:08;;;;;;;17.35;11.38;;;18.70;99.90;;;;;;5074087;28;20043;-58
2020/12/19 10:01:36;;;;;;;13.68;10.43;;;18.70;99.90;;;;;;5073533;28;20024;-59
2020/12/19 10:04:04;;;;;;;12.18;3.28;;;18.70;99.90;;;;;;5073651;28;20029;-59
2020/12/19 10:06:32;;;;;;;13.85;3.35;;;18.70;99.90;;;;;;5073615;28;20025;-58
2020/12/19 10:09:00;;;;;;;20.13;3.80;;;18.60;99.90;;;;;;5073376;28;20020;-59
2020/12/19 10:11:29;;;;;;;14.38;3.97;;;18.60;99.90;;;;;;5073438;28;20461;-59
2020/12/19 10:13:57;;;;;;;15.13;3.38;;;18.60;99.90;;;;;;5073265;28;20024;-59
2020/12/19 10:16:24;;;;;;;16.73;4.65;;;18.50;99.90;;;;;;5073371;28;20486;-59
2020/12/19 10:18:52;;;;;;;12.68;4.13;;;18.50;99.90;;;;;;5073215;28;20045;-59
2020/12/19 10:21:20;;;;;;;14.95;3.67;;;18.50;99.90;;;;;;5073370;28;20435;-58
2020/12/19 10:23:48;;;;;;;17.77;4.47;;;18.60;99.90;;;;;;5073504;28;20101;-59
2020/12/19 10:26:16;;;;;;;17.42;4.15;;;18.60;99.90;;;;;;5071883;28;20059;-59
2020/12/19 10:28:43;;;;;;;15.02;4.20;;;18.50;99.90;;;;;;5073357;28;20020;-60
2020/12/19 10:31:11;;;;;;;16.83;4.93;;;18.60;99.90;;;;;;5073235;28;20108;-58
2020/12/19 10:33:39;;;;;;;16.65;4.45;;;18.60;99.90;;;;;;5072802;28;20028;-58
2020/12/19 10:36:07;;;;;;;11.43;3.92;;;18.60;99.90;;;;;;5073077;28;20477;-58
2020/12/19 10:38:35;;;;;;;14.13;4.15;;;18.70;99.90;;;;;;5072821;28;20088;-59
2020/12/19 10:41:03;;;;;;;14.18;4.45;;;18.70;99.90;;;;;;5073082;28;20021;-59
2020/12/19 10:43:31;;;;;;;15.30;4.50;;;18.70;99.90;;;;;;5072984;28;20024;-58
2020/12/19 10:46:01;;;;;;;15.18;4.22;;;18.70;99.90;;;;;;5073078;28;20095;-62
2020/12/19 10:48:29;;;;;;;15.35;4.50;;;18.60;99.90;;;;;;5073197;28;20032;-58
2020/12/19 10:50:57;;;;;;;16.85;4.93;;;18.70;99.90;;;;;;5073176;28;20024;-58
2020/12/19 10:53:26;;;;;;;15.25;5.00;;;18.70;99.90;;;;;;5054231;28;20037;-58
2020/12/19 10:55:54;;;;;;;12.23;3.90;;;18.60;99.90;;;;;;5072681;28;20074;-58
2020/12/19 10:58:22;;;;;;;17.10;4.40;;;18.70;99.90;;;;;;5072817;28;20423;-58
2020/12/19 11:00:49;;;;;;;16.25;3.88;;;18.70;99.90;;;;;;5072832;28;20078;-58
2020/12/19 11:03:17;;;;;;;15.25;3.97;;;18.70;99.90;;;;;;5072750;28;20021;-58
2020/12/19 11:05:45;;;;;;;13.15;3.92;;;18.70;99.90;;;;;;5072640;28;20032;-59
2020/12/19 11:08:13;;;;;;;13.95;3.72;;;18.70;99.90;;;;;;5072835;28;20032;-59
2020/12/19 11:10:43;;;;;;;13.02;4.22;;;18.70;99.90;;;;;;5072779;28;20021;-60
2020/12/19 11:13:11;;;;;;;17.10;4.28;;;18.70;99.90;;;;;;5072889;28;20054;-59
2020/12/19 11:15:41;;;;;;;17.15;5.30;;;18.70;99.90;;;;;;5072764;28;20028;-59
2020/12/19 11:18:08;;;;;;;23.20;4.95;;;18.70;99.90;;;;;;5072476;28;20498;-59
2020/12/19 11:20:37;;;;;;;18.90;4.72;;;18.70;99.90;;;;;;5072894;28;20025;-59
2020/12/19 11:23:05;;;;;;;16.27;5.05;;;18.60;99.90;;;;;;5072758;28;20028;-58
2020/12/19 11:25:33;;;;;;;18.85;5.43;;;18.60;99.90;;;;;;5072731;28;20395;-58
2020/12/19 11:28:01;;;;;;;15.60;3.90;;;18.60;99.90;;;;;;5072302;28;20035;-58
2020/12/19 11:30:28;;;;;;;14.20;4.10;;;18.60;99.90;;;;;;5072697;28;20028;-59
2020/12/19 11:32:56;;;;;;;10.95;3.50;;;18.60;99.90;;;;;;5072724;28;20025;-58
2020/12/19 11:35:24;;;;;;;16.42;3.20;;;18.60;99.90;;;;;;5072629;28;20032;-59
2020/12/19 11:37:52;;;;;;;15.73;3.63;;;18.60;99.90;;;;;;5072136;28;20028;-58
2020/12/19 11:40:20;;;;;;;12.27;3.00;;;18.60;99.90;;;;;;5072105;28;20029;-60
2020/12/19 11:42:48;;;;;;;14.88;3.22;;;18.50;99.90;;;;;;5072537;28;20021;-59
2020/12/19 11:45:17;;;;;;;14.20;3.50;;;18.50;99.90;;;;;;5072314;28;20027;-58
2020/12/19 11:47:45;;;;;;;12.63;3.55;;;18.50;99.90;;;;;;5072122;28;20025;-61
2020/12/19 11:50:13;;;;;;;12.07;3.08;;;18.50;99.90;;;;;;5072023;28;20016;-58
2020/12/19 11:52:41;;;;;;;9.93;3.08;;;18.50;99.90;;;;;;5072044;28;20107;-58
2020/12/19 11:55:09;;;;;;;9.52;2.80;;;18.50;99.90;;;;;;5072428;28;20029;-59
2020/12/19 11:57:38;;;;;;;14.43;3.33;;;18.50;99.90;;;;;;5072088;28;20051;-58
2020/12/19 12:00:07;;;;;;;10.18;3.13;;;18.60;99.90;;;;;;5072077;28;20476;-59
2020/12/19 12:02:36;;;;;;;8.30;2.70;;;18.60;99.90;;;;;;5072286;28;20472;-59
2020/12/19 12:05:05;;;;;;;11.15;3.00;;;18.50;99.90;;;;;;5072994;28;20066;-60
2020/12/19 12:07:32;;;;;;;10.98;2.78;;;18.50;99.90;;;;;;5076324;28;20036;-59
2020/12/19 12:10:00;;;;;;;13.48;2.88;;;18.50;99.90;;;;;;5075782;28;20020;-59
2020/12/19 12:12:28;;;;;;;11.32;3.33;;;18.50;99.90;;;;;;5076183;28;20404;-59
2020/12/19 12:14:56;;;;;;;12.43;3.28;;;18.40;99.90;;;;;;5057484;28;20029;-59
2020/12/19 12:17:24;;;;;;;12.98;3.40;;;18.40;99.90;;;;;;5075844;28;20384;-58
2020/12/19 12:19:52;;;;;;;29.98;19.33;;;18.50;99.90;;;;;;5075356;28;20451;-58
2020/12/19 12:22:20;;;;;;;15.43;5.88;;;18.50;99.90;;;;;;5075906;28;20023;-59
2020/12/19 12:24:48;;;;;;;14.18;5.88;;;18.50;99.90;;;;;;5075822;28;20021;-57
2020/12/19 12:27:17;;;;;;;9.38;2.35;;;18.50;99.90;;;;;;5073690;28;20548;-58
2020/12/19 12:29:45;;;;;;;11.52;2.92;;;18.50;99.90;;;;;;5075684;28;20021;-59
2020/12/19 12:32:13;;;;;;;11.05;2.80;;;18.50;99.90;;;;;;5075373;28;20044;-59
2020/12/19 12:34:41;;;;;;;9.10;2.00;;;18.50;99.90;;;;;;5075332;28;20063;-59
2020/12/19 12:37:11;;;;;;;8.38;2.45;;;18.50;99.90;;;;;;5053049;28;20041;-58
2020/12/19 12:39:40;;;;;;;11.98;2.47;;;18.50;99.90;;;;;;5053023;28;20048;-58
2020/12/19 12:42:08;;;;;;;10.35;3.00;;;18.50;99.90;;;;;;5052963;28;20452;-57
2020/12/19 12:44:36;;;;;;;10.48;2.83;;;18.50;99.90;;;;;;5036407;28;20029;-58
2020/12/19 12:47:05;;;;;;;14.00;2.85;;;18.50;99.90;;;;;;5052979;28;20033;-58
2020/12/19 12:49:34;;;;;;;10.07;2.20;;;18.50;99.90;;;;;;5052928;28;20044;-59
2020/12/19 12:52:02;;;;;;;13.40;3.78;;;18.50;99.90;;;;;;5052943;28;20107;-58
2020/12/19 12:54:30;;;;;;;10.98;2.45;;;18.50;99.90;;;;;;5052894;28;20489;-59
2020/12/19 12:56:58;;;;;;;10.75;2.80;;;18.50;99.90;;;;;;5052824;28;20033;-59
2020/12/19 12:59:26;;;;;;;11.43;3.20;;;18.50;99.90;;;;;;5052690;28;20029;-59
2020/12/19 13:01:54;;;;;;;16.02;2.92;;;18.50;99.90;;;;;;5052602;28;20029;-59
2020/12/19 13:04:23;;;;;;;10.63;3.10;;;18.50;99.90;;;;;;5052596;28;20408;-59
2020/12/19 13:06:52;;;;;;;13.32;3.60;;;18.50;99.90;;;;;;5052748;28;20051;-59
2020/12/19 13:09:20;;;;;;;10.18;3.63;;;18.50;99.90;;;;;;5074968;28;20020;-59
2020/12/19 13:11:52;;;;;;;22.60;3.95;;;18.60;99.90;;;;;;5074807;28;20039;-59
2020/12/19 13:14:20;;;;;;;15.82;3.80;;;18.50;99.90;;;;;;5075071;28;20021;-59
2020/12/19 13:16:49;;;;;;;12.40;3.72;;;18.50;99.90;;;;;;5074939;28;20108;-59
2020/12/19 13:19:16;;;;;;;9.43;3.00;;;18.60;99.90;;;;;;5074444;28;20044;-59
2020/12/19 13:21:47;;;;;;;12.93;3.58;;;18.50;99.90;;;;;;5074749;28;20039;-59
2020/12/19 13:24:15;;;;;;;19.63;4.30;;;18.60;99.90;;;;;;5074582;28;20025;-59
2020/12/19 13:26:47;;;;;;;13.30;3.53;;;18.60;99.90;;;;;;5074634;28;20073;-59
2020/12/19 13:29:17;;;;;;;14.07;4.35;;;18.60;99.90;;;;;;5074725;28;20495;-58
2020/12/19 13:31:47;;;;;;;14.52;3.88;;;18.60;99.90;;;;;;5074619;28;20468;-61
2020/12/19 13:34:16;;;;;;;11.50;3.78;;;18.60;99.90;;;;;;5074612;28;20024;-58
2020/12/19 13:36:45;;;;;;;13.65;3.78;;;18.60;99.90;;;;;;5055816;28;20495;-58
2020/12/19 13:39:13;;;;;;;11.25;3.30;;;18.60;99.90;;;;;;5074518;28;20467;-58
2020/12/19 13:41:42;;;;;;;11.57;3.67;;;18.50;99.90;;;;;;5074395;28;20039;-59
2020/12/19 13:44:10;;;;;;;13.02;4.03;;;18.60;99.90;;;;;;5074471;28;20473;-58
2020/12/19 13:46:38;;;;;;;13.50;4.10;;;18.60;99.90;;;;;;5074126;28;20032;-58
2020/12/19 13:49:06;;;;;;;12.48;3.78;;;18.60;99.90;;;;;;5073911;28;20052;-59
2020/12/19 13:51:34;;;;;;;15.93;3.97;;;18.60;99.90;;;;;;5074172;28;20361;-59
2020/12/19 13:54:02;;;;;;;10.95;3.55;;;18.70;99.90;;;;;;5074322;28;20033;-58
2020/12/19 13:56:30;;;;;;;13.18;3.30;;;18.70;99.90;;;;;;5073901;28;20021;-59
2020/12/19 13:59:00;;;;;;;16.58;5.00;;;18.70;99.90;;;;;;5073802;28;20032;-58
2020/12/19 14:01:35;;;;;;;15.25;3.78;;;18.70;99.90;;;;;;5073801;28;20066;-58
2020/12/19 14:04:04;;;;;;;14.35;3.72;;;18.60;99.90;;;;;;5055223;28;20033;-59
2020/12/19 14:06:33;;;;;;;11.32;4.30;;;18.60;99.90;;;;;;5055468;28;20029;-57
2020/12/19 14:09:01;;;;;;;13.13;4.32;;;18.60;99.90;;;;;;5073932;28;20377;-59
2020/12/19 14:11:32;;;;;;;12.88;3.72;;;18.60;99.90;;;;;;5072220;28;20361;-58
2020/12/19 14:14:00;;;;;;;15.32;4.43;;;18.60;99.90;;;;;;5073849;28;20028;-59
2020/12/19 14:16:31;;;;;;;19.73;12.93;;;18.60;99.90;;;;;;5074044;28;20059;-59
2020/12/19 14:19:00;;;;;;;16.55;3.97;;;18.60;99.90;;;;;;5072142;28;20451;-58
2020/12/19 14:21:28;;;;;;;19.85;10.93;;;18.60;99.90;;;;;;5073274;28;20033;-59
2020/12/19 14:23:56;;;;;;;17.77;11.95;;;18.60;99.90;;;;;;5073576;28;20070;-58
2020/12/19 14:26:26;;;;;;;21.05;15.80;;;18.60;99.90;;;;;;5073581;28;20025;-59
2020/12/19 14:28:55;;;;;;;14.15;3.08;;;18.60;99.90;;;;;;5054379;28;20492;-59
2020/12/19 14:31:24;;;;;;;13.00;3.47;;;18.60;99.90;;;;;;5073470;28;20059;-59
2020/12/19 14:33:52;;;;;;;16.35;5.47;;;18.60;99.90;;;;;;5073498;28;20113;-59
2020/12/19 14:36:28;;;;;;;14.85;9.35;;;18.60;99.90;;;;;;5073412;28;20413;-58
2020/12/19 14:38:56;;;;;;;17.77;3.42;;;18.50;99.90;;;;;;5073308;28;20107;-58
2020/12/19 14:41:25;;;;;;;12.65;3.70;;;18.50;99.90;;;;;;5073205;28;20021;-59
2020/12/19 14:43:54;;;;;;;13.05;2.63;;;18.50;99.90;;;;;;5072963;28;20041;-59
2020/12/19 14:46:22;;;;;;;17.48;3.83;;;18.40;99.90;;;;;;5054569;28;20361;-59
2020/12/19 14:48:54;;;;;;;11.20;2.45;;;18.40;99.90;;;;;;5073240;28;20029;-58
2020/12/19 14:51:23;;;;;;;15.70;3.22;;;18.40;99.90;;;;;;5072998;28;20032;-59
2020/12/19 14:53:51;;;;;;;9.38;2.50;;;18.40;99.90;;;;;;5073389;28;20085;-58
2020/12/19 14:56:20;;;;;;;14.38;3.13;;;18.40;99.90;;;;;;5072941;28;20048;-59
2020/12/19 14:58:48;;;;;;;10.93;3.10;;;18.30;99.90;;;;;;5071096;28;20028;-59
2020/12/19 15:01:17;;;;;;;15.73;3.08;;;18.30;99.90;;;;;;5072846;28;20027;-59
2020/12/19 15:03:45;;;;;;;12.60;3.30;;;18.30;99.90;;;;;;5072822;28;20103;-58
2020/12/19 15:06:14;;;;;;;17.90;4.57;;;18.30;99.90;;;;;;5072838;28;20024;-59
2020/12/19 15:08:45;;;;;;;11.90;3.10;;;18.30;99.90;;;;;;5072814;28;20029;-58
2020/12/19 15:11:16;;;;;;;15.38;5.95;;;18.30;99.90;;;;;;5073002;28;20051;-59
2020/12/19 15:13:48;;;;;;;13.93;3.80;;;18.30;99.90;;;;;;5070891;28;20116;-59
2020/12/19 15:16:16;;;;;;;18.88;5.35;;;18.20;99.90;;;;;;5072950;28;20032;-59
2020/12/19 15:18:44;;;;;;;11.63;4.07;;;18.30;99.90;;;;;;5072524;28;20550;-60
2020/12/19 15:21:13;;;;;;;13.30;3.50;;;18.30;99.90;;;;;;5072927;28;20063;-59
2020/12/19 15:23:41;;;;;;;11.20;3.35;;;18.20;99.90;;;;;;5073143;28;20050;-59
2020/12/19 15:26:09;;;;;;;12.73;3.35;;;18.20;99.90;;;;;;5073615;28;20393;-60
2020/12/19 15:28:37;;;;;;;9.48;3.97;;;18.10;99.90;;;;;;5073205;28;20047;-60
2020/12/19 15:31:06;;;;;;;10.75;2.88;;;18.10;99.90;;;;;;5073084;28;20111;-59
2020/12/19 15:33:34;;;;;;;11.25;2.75;;;18.10;99.90;;;;;;5073090;28;20488;-60
2020/12/19 15:36:03;;;;;;;18.88;17.13;;;18.10;99.90;;;;;;5072476;28;20032;-59
2020/12/19 15:38:32;;;;;;;8.05;3.38;;;18.10;99.90;;;;;;5072476;28;20031;-59
2020/12/19 15:41:00;;;;;;;34.80;32.08;;;18.10;99.90;;;;;;5075091;28;20417;-59
2020/12/19 15:43:29;;;;;;;10.20;3.17;;;18.10;99.90;;;;;;5076585;28;20432;-59
2020/12/19 15:45:57;;;;;;;7.80;2.80;;;18.10;99.90;;;;;;5076249;28;20111;-60
2020/12/19 15:48:26;;;;;;;9.43;2.70;;;18.10;99.90;;;;;;5074514;28;20044;-62
2020/12/19 15:50:54;;;;;;;10.60;3.28;;;18.10;99.90;;;;;;5076154;28;20380;-60
2020/12/19 15:53:23;;;;;;;12.40;2.97;;;18.10;99.90;;;;;;5076420;28;20431;-60
2020/12/19 15:55:53;;;;;;;7.70;2.88;;;18.10;99.90;;;;;;5076141;28;20036;-62
2020/12/19 15:58:21;;;;;;;7.30;2.67;;;18.00;99.90;;;;;;5075929;28;20587;-60
2020/12/19 16:00:49;;;;;;;13.35;3.90;;;18.10;99.90;;;;;;5057484;28;20085;-60
2020/12/19 16:03:17;;;;;;;9.43;3.47;;;18.10;99.90;;;;;;5076277;28;20020;-60
2020/12/19 16:05:45;;;;;;;9.27;3.58;;;18.10;99.90;;;;;;5076006;28;20469;-60
2020/12/19 16:08:13;;;;;;;8.00;3.22;;;18.10;99.90;;;;;;5076110;28;20052;-60
2020/12/19 16:10:41;;;;;;;9.05;3.22;;;18.10;99.90;;;;;;5075827;28;20086;-60
2020/12/19 16:13:09;;;;;;;7.45;3.45;;;18.10;99.90;;;;;;5076015;28;20047;-60
2020/12/19 16:15:38;;;;;;;12.70;3.25;;;18.10;99.90;;;;;;5075936;28;20028;-59
2020/12/19 16:18:07;;;;;;;9.65;3.28;;;18.10;99.90;;;;;;5075421;28;20036;-60
2020/12/19 16:20:35;;;;;;;10.27;4.18;;;18.10;99.90;;;;;;5075857;28;20035;-61
2020/12/19 16:23:03;;;;;;;10.82;3.30;;;18.10;99.90;;;;;;5075574;28;20021;-60
2020/12/19 16:25:32;;;;;;;13.77;3.72;;;18.20;99.90;;;;;;5075879;28;20020;-60
2020/12/19 16:28:01;;;;;;;12.68;3.80;;;18.10;99.90;;;;;;5075700;28;20048;-60
2020/12/19 16:30:29;;;;;;;12.90;3.92;;;18.20;99.90;;;;;;5075713;28;20500;-60
2020/12/19 16:33:04;;;;;;;9.65;3.88;;;18.20;99.90;;;;;;5075608;28;20490;-60
2020/12/19 16:35:32;;;;;;;15.45;4.72;;;18.20;99.90;;;;;;5075296;28;20216;-60
2020/12/19 16:38:00;;;;;;;15.45;4.78;;;18.20;99.90;;;;;;5075501;28;20029;-60
2020/12/19 16:40:29;;;;;;;12.85;4.70;;;18.20;99.90;;;;;;5076244;28;20103;-60
2020/12/19 16:42:57;;;;;;;16.13;5.20;;;18.20;99.90;;;;;;5057838;28;20078;-59
2020/12/19 16:45:25;;;;;;;10.82;5.10;;;18.20;99.90;;;;;;5076329;28;20067;-60
2020/12/19 16:47:54;;;;;;;18.08;5.65;;;18.20;99.90;;;;;;5076086;28;20111;-60
2020/12/19 16:50:22;;;;;;;19.83;5.45;;;18.30;99.90;;;;;;5075459;28;20024;-60
2020/12/19 16:52:50;;;;;;;13.38;5.97;;;18.30;99.90;;;;;;5076025;28;20036;-60
2020/12/19 16:55:19;;;;;;;16.30;5.15;;;18.30;99.90;;;;;;5074011;28;20365;-60
2020/12/19 16:57:47;;;;;;;20.67;6.60;;;18.30;99.90;;;;;;5075722;28;20017;-60
2020/12/19 17:00:15;;;;;;;20.33;7.32;;;18.30;99.90;;;;;;5057180;28;20028;-60
2020/12/19 17:02:43;;;;;;;13.85;7.20;;;18.30;99.90;;;;;;5075803;28;20021;-60
2020/12/19 17:05:12;;;;;;;17.60;7.40;;;18.30;99.90;;;;;;5075665;28;20028;-60
2020/12/19 17:07:42;;;;;;;12.95;7.03;;;18.30;99.90;;;;;;5073754;28;20070;-60
2020/12/19 17:10:10;;;;;;;14.52;7.68;;;18.30;99.90;;;;;;5075496;28;20039;-60
2020/12/19 17:12:38;;;;;;;13.85;7.47;;;18.30;99.90;;;;;;5075475;28;20024;-60
2020/12/19 17:15:07;;;;;;;12.45;6.32;;;18.30;99.90;;;;;;5075598;28;20021;-60
2020/12/19 17:17:36;;;;;;;14.65;7.38;;;18.30;99.90;;;;;;5075191;28;20048;-60
2020/12/19 17:20:05;;;;;;;12.80;5.88;;;18.30;99.90;;;;;;5074023;28;20514;-60
2020/12/19 17:22:35;;;;;;;12.57;6.13;;;18.40;99.90;;;;;;5075299;28;20029;-60
2020/12/19 17:25:03;;;;;;;13.38;6.38;;;18.40;99.90;;;;;;5075446;28;20063;-60